Glencoe, Missouri
Current Conditions -  °F | °C
As of 6:54 AM on Wednesday 26 Nov 2014 (Local Time) from KSUS Reporting Station
Broken Clouds Broken Clouds  
Wind Chill: 24°   Ceiling: 11000
Heat Index: 29°   Visibility: 10mi
Dew Point: 24°   Wind: 5mph
Humidity: 82%   Direction: NA
Pressure: 30.06"   Gusts: NA
Location:  38.54°N, 90.62°W
Report Text: KSUS 261254Z VRB04KT 10SM BKN110 M02/M04 A3006 RMK AO2 SLP187 T10171044
Loading
Personal Weather Stations






























Interactive Weather Map New forecast layout! Learn more

10-Day Weather Forecast

Advertisements
Track Severe Weather on mobile